Time;durP1;ratioP1;P1;durP2;ratioP2;P2;SDS_P1;SDS_P2;PMS_P1;PMS_P2;Temp;Humidity;BMP_temperature;BMP_pressure;BME280_temperature;BME280_humidity;BME280_pressure;Samples;Min_cycle;Max_cycle;Signal;HPM_P1;HPM_P2
2023/03/12 00:00:49;;;;;;;7.18;3.15;;;;;;;2.28;73.87;62231.84;5026295;28;20214;-81
2023/03/12 00:03:17;;;;;;;4.65;3.05;;;;;;;2.26;75.21;62237.34;5030163;28;20203;-82
2023/03/12 00:05:45;;;;;;;4.88;3.60;;;;;;;2.28;76.18;62229.84;5028992;28;20199;-81
2023/03/12 00:08:13;;;;;;;9.55;3.92;;;;;;;2.24;75.56;62230.25;5015218;28;20289;-80
2023/03/12 00:10:42;;;;;;;3.95;3.70;;;;;;;2.20;74.99;62226.66;5014456;28;20207;-81
2023/03/12 00:13:09;;;;;;;5.50;3.28;;;;;;;2.18;75.57;62229.09;5014948;28;20235;-81
2023/03/12 00:15:37;;;;;;;6.45;3.33;;;;;;;2.17;76.43;62225.56;5029323;28;20221;-82
2023/03/12 00:18:04;;;;;;;3.83;3.55;;;;;;;2.10;75.53;62218.38;5026593;28;20265;-78
2023/03/12 00:20:31;;;;;;;4.78;2.95;;;;;;;2.08;76.41;62213.81;5029543;28;20450;-77
2023/03/12 00:22:58;;;;;;;3.28;3.08;;;;;;;2.12;75.16;62215.41;5027518;28;20261;-81
2023/03/12 00:25:25;;;;;;;3.65;3.30;;;;;;;2.14;74.26;62220.47;5028131;28;20195;-81
2023/03/12 00:27:54;;;;;;;4.60;3.47;;;;;;;2.08;74.54;62213.81;5026693;28;20432;-80
2023/03/12 00:30:22;;;;;;;3.53;3.15;;;;;;;2.05;74.93;62211.25;5028560;28;20499;-80
2023/03/12 00:32:48;;;;;;;9.35;3.70;;;;;;;1.97;74.76;62197.50;5027927;28;20234;-77
2023/03/12 00:35:15;;;;;;;9.35;3.58;;;;;;;1.97;72.15;62205.53;5024846;28;20253;-78
2023/03/12 00:37:42;;;;;;;3.17;2.50;;;;;;;1.97;71.13;62202.50;5029378;28;20229;-80
2023/03/12 00:40:11;;;;;;;5.25;2.80;;;;;;;2.00;69.57;62203.59;5026832;28;20491;-77
2023/03/12 00:42:38;;;;;;;7.97;2.70;;;;;;;2.00;69.43;62203.09;5028165;28;20218;-78
2023/03/12 00:45:08;;;;;;;3.17;2.92;;;;;;;1.97;71.14;62202.50;5025015;28;20221;-78
2023/03/12 00:47:35;;;;;;;2.85;2.65;;;;;;;1.94;69.66;62202.47;5027036;28;20226;-77
2023/03/12 00:50:02;;;;;;;2.78;2.67;;;;;;;1.95;71.53;62195.47;5026850;28;20214;-80
2023/03/12 00:52:30;;;;;;;3.25;2.50;;;;;;;1.85;70.50;62190.72;5027504;28;20222;-80
2023/03/12 00:54:57;;;;;;;2.72;2.58;;;;;;;1.92;67.92;62197.91;5025459;28;20207;-77
2023/03/12 00:57:25;;;;;;;2.90;2.70;;;;;;;1.80;69.01;62187.56;5015402;28;20229;-77
2023/03/12 00:59:52;;;;;;;5.78;2.10;;;;;;;1.97;61.31;62203.03;5005597;28;20203;-80
2023/03/12 01:02:21;;;;;;;2.35;2.15;;;;;;;2.00;66.26;62205.59;5007346;28;20233;-80
2023/03/12 01:04:48;;;;;;;3.80;2.30;;;;;;;1.85;69.16;62190.19;5014215;28;20498;-79
2023/03/12 01:07:15;;;;;;;3.22;2.40;;;;;;;1.92;68.49;62202.91;5018601;28;20227;-79
2023/03/12 01:09:42;;;;;;;2.55;2.38;;;;;;;1.86;68.00;62188.72;5006329;28;20200;-78
2023/03/12 01:12:09;;;;;;;2.97;2.78;;;;;;;1.82;69.27;62184.59;5015942;28;20565;-79
2023/03/12 01:14:36;;;;;;;2.63;2.42;;;;;;;1.75;70.95;62182.44;5024121;28;20226;-78
2023/03/12 01:17:03;;;;;;;5.00;2.35;;;;;;;1.63;75.07;62170.63;5024457;28;20574;-81
2023/03/12 01:19:32;;;;;;;2.08;2.00;;;;;;;1.63;72.00;62170.63;5026002;28;20270;-79
2023/03/12 01:21:59;;;;;;;4.20;3.03;;;;;;;1.72;75.92;62176.84;5023186;28;20219;-80
2023/03/12 01:24:27;;;;;;;4.15;2.72;;;;;;;1.64;76.49;62173.66;5010226;28;20199;-80
2023/03/12 01:26:53;;;;;;;2.53;2.42;;;;;;;1.55;75.26;62154.91;5026117;28;20226;-78
2023/03/12 01:29:20;;;;;;;2.38;2.28;;;;;;;1.59;71.76;62161.00;5023956;28;20309;-77
2023/03/12 01:31:47;;;;;;;1.88;1.67;;;;;;;1.68;69.20;62173.25;5025456;28;20280;-81
2023/03/12 01:34:14;;;;;;;2.33;2.22;;;;;;;1.76;70.81;62178.97;5025653;28;20209;-80
2023/03/12 01:36:46;;;;;;;2.72;2.47;;;;;;;1.70;72.02;62175.31;5025343;28;20549;-78
2023/03/12 01:39:14;;;;;;;2.40;2.20;;;;;;;1.72;68.51;62179.38;5025114;28;20249;-80
2023/03/12 01:41:41;;;;;;;2.63;2.15;;;;;;;1.69;70.12;62174.28;5025547;28;20223;-81
2023/03/12 01:44:14;;;;;;;5.85;2.65;;;;;;;1.69;71.33;62171.78;5009675;28;20204;-81
2023/03/12 01:46:42;;;;;;;2.90;2.70;;;;;;;1.66;71.81;62173.19;5009917;28;20226;-81
2023/03/12 01:49:12;;;;;;;2.20;2.10;;;;;;;1.75;65.35;62179.94;5024499;28;20202;-84
2023/03/12 01:51:42;;;;;;;4.20;2.00;;;;;;;1.79;68.05;62186.56;5018462;28;20238;-79
2023/03/12 01:54:15;;;;;;;1.90;1.77;;;;;;;1.78;69.29;62180.50;5010731;28;20218;-81
2023/03/12 01:56:42;;;;;;;2.28;1.85;;;;;;;1.76;62.81;62183.97;5013921;28;20403;-78
2023/03/12 01:59:15;;;;;;;1.88;1.77;;;;;;;1.91;61.35;62196.88;5030246;28;20202;-79
2023/03/12 02:01:43;;;;;;;1.92;1.83;;;;;;;1.87;61.65;62197.25;5029886;28;20214;-81
2023/03/12 02:04:11;;;;;;;2.03;1.92;;;;;;;1.78;62.90;62183.53;5011191;28;20255;-77
2023/03/12 02:06:43;;;;;;;1.88;1.77;;;;;;;1.86;65.27;62188.72;5019331;28;20218;-79
2023/03/12 02:09:14;;;;;;;1.70;1.60;;;;;;;1.81;61.99;62183.59;5030066;28;20484;-78
2023/03/12 02:11:41;;;;;;;1.90;1.80;;;;;;;1.87;59.59;62192.25;5023576;28;20246;-80
2023/03/12 02:14:08;;;;;;;1.83;1.73;;;;;;;1.85;59.02;62187.69;5009764;28;20262;-79
2023/03/12 02:16:35;;;;;;;1.77;1.75;;;;;;;1.91;60.85;62196.38;5025263;28;20219;-81
2023/03/12 02:19:05;;;;;;;1.33;1.33;;;;;;;1.81;58.97;62191.63;5024274;28;20191;-80
2023/03/12 02:21:34;;;;;;;1.17;1.10;;;;;;;1.80;58.76;62195.09;5028662;28;20334;-78
2023/03/12 02:24:07;;;;;;;1.55;1.45;;;;;;;1.80;57.94;62185.56;5028614;28;20213;-78
2023/03/12 02:26:37;;;;;;;1.55;1.45;;;;;;;1.73;59.65;62182.91;5029683;28;20228;-80
2023/03/12 02:29:05;;;;;;;1.75;1.65;;;;;;;1.72;59.89;62179.88;5028274;28;20199;-80
2023/03/12 02:31:38;;;;;;;1.65;1.55;;;;;;;1.64;59.46;62166.13;5016979;28;20220;-78
2023/03/12 02:34:05;;;;;;;1.60;1.50;;;;;;;1.75;59.17;62177.94;5022901;28;20226;-78
2023/03/12 02:36:32;;;;;;;1.38;1.33;;;;;;;1.68;60.85;62170.22;5023882;28;20282;-80
2023/03/12 02:38:59;;;;;;;1.98;1.88;;;;;;;1.59;60.18;62161.50;5027280;28;20223;-77
2023/03/12 02:41:29;;;;;;;1.92;1.83;;;;;;;1.64;62.01;62171.16;5012560;28;20523;-78
2023/03/12 02:44:02;;;;;;;1.30;1.30;;;;;;;1.60;56.25;62167.06;5024796;28;20551;-76
2023/03/12 02:46:33;;;;;;;1.05;1.02;;;;;;;1.66;55.40;62173.19;5027666;28;20230;-77
2023/03/12 02:49:01;;;;;;;3.13;1.77;;;;;;;1.58;59.74;62163.00;5028919;28;20186;-79
2023/03/12 02:51:30;;;;;;;1.20;1.20;;;;;;;1.58;56.70;62163.00;5022139;28;20223;-78
2023/03/12 02:53:57;;;;;;;1.48;1.38;;;;;;;1.57;55.81;62158.97;5015052;28;20199;-78
2023/03/12 02:56:26;;;;;;;2.85;1.15;;;;;;;1.70;55.83;62174.81;5027487;28;20245;-76
2023/03/12 02:58:53;;;;;;;1.48;1.48;;;;;;;1.69;57.78;62174.28;5027840;28;20203;-77
2023/03/12 03:01:22;;;;;;;5.18;1.50;;;;;;;1.62;56.43;62166.59;5020993;28;20230;-78
2023/03/12 03:03:48;;;;;;;1.85;1.35;;;;;;;1.60;57.82;62164.53;5028928;28;20198;-78
2023/03/12 03:06:16;;;;;;;1.02;1.02;;;;;;;1.70;54.55;62177.31;5027388;28;20528;-77
2023/03/12 03:08:43;;;;;;;1.20;1.20;;;;;;;1.75;53.13;62179.94;5027089;28;20379;-80
2023/03/12 03:11:10;;;;;;;0.80;0.80;;;;;;;1.72;51.97;62179.38;5026190;28;20240;-79
2023/03/12 03:13:37;;;;;;;0.70;0.70;;;;;;;1.78;51.63;62185.50;5026867;28;20234;-78
2023/03/12 03:16:04;;;;;;;0.60;0.60;;;;;;;1.82;50.27;62184.59;5026811;28;20290;-77
2023/03/12 03:18:33;;;;;;;1.33;0.88;;;;;;;1.84;50.58;62192.19;5024873;28;20233;-77
2023/03/12 03:21:02;;;;;;;0.95;0.68;;;;;;;1.85;49.91;62190.19;5027306;28;20198;-77
2023/03/12 03:23:30;;;;;;;1.45;0.60;;;;;;;1.94;49.42;62197.44;5024955;28;20209;-77
2023/03/12 03:25:57;;;;;;;0.50;0.50;;;;;;;1.86;49.25;62191.22;5028550;28;20198;-81
2023/03/12 03:28:25;;;;;;;0.60;0.60;;;;;;;1.93;49.25;62193.41;5026224;28;20206;-77
2023/03/12 03:30:53;;;;;;;2.30;0.82;;;;;;;1.86;48.98;62191.22;5025650;28;20198;-78
2023/03/12 03:33:21;;;;;;;0.73;0.73;;;;;;;1.85;49.10;62195.72;5025801;28;20230;-79
2023/03/12 03:35:49;;;;;;;0.40;0.40;;;;;;;1.87;49.01;62192.25;5026942;28;20208;-77
2023/03/12 03:38:16;;;;;;;1.67;0.63;;;;;;;1.88;48.86;62193.28;5008402;28;20227;-77
2023/03/12 03:40:43;;;;;;;1.40;0.85;;;;;;;1.91;48.47;62196.38;5008894;28;20245;-79
2023/03/12 03:43:09;;;;;;;0.60;0.60;;;;;;;1.96;48.93;62202.00;5026205;28;20226;-77
2023/03/12 03:45:36;;;;;;;1.13;1.02;;;;;;;1.95;49.79;62198.47;5024147;28;20220;-77
2023/03/12 03:48:04;;;;;;;1.23;0.93;;;;;;;1.86;49.61;62194.25;5026103;28;20218;-79
2023/03/12 03:50:31;;;;;;;0.80;0.80;;;;;;;1.89;49.81;62194.31;5024055;28;20285;-79
2023/03/12 03:52:59;;;;;;;1.13;1.05;;;;;;;1.87;50.34;62190.25;5025973;28;20294;-77
2023/03/12 03:55:26;;;;;;;5.75;1.00;;;;;;;1.90;50.27;62195.31;5026675;28;20242;-77
2023/03/12 03:57:54;;;;;;;0.77;0.77;;;;;;;1.95;51.20;62200.97;5026591;28;20293;-78
2023/03/12 04:00:22;;;;;;;1.45;1.35;;;;;;;1.93;51.04;62201.44;5024305;28;20493;-77
2023/03/12 04:02:49;;;;;;;0.93;0.93;;;;;;;1.85;50.73;62197.72;5025102;28;20218;-78
2023/03/12 04:05:18;;;;;;;0.98;0.98;;;;;;;1.84;51.17;62187.19;5016080;28;20226;-76
2023/03/12 04:07:45;;;;;;;1.05;1.05;;;;;;;1.85;51.20;62192.69;5007305;28;20246;-78
2023/03/12 04:10:14;;;;;;;0.73;0.73;;;;;;;1.86;50.86;62194.25;5025271;28;20245;-77
2023/03/12 04:12:41;;;;;;;1.00;1.00;;;;;;;1.84;50.45;62187.19;5024856;28;20590;-80
2023/03/12 04:15:09;;;;;;;0.80;0.80;;;;;;;1.79;50.81;62187.06;5025941;28;20269;-78
2023/03/12 04:17:35;;;;;;;0.70;0.70;;;;;;;1.78;50.53;62183.00;5024141;28;20229;-77
2023/03/12 04:20:06;;;;;;;0.50;0.50;;;;;;;1.73;50.03;62177.88;5026581;28;20199;-79
2023/03/12 04:22:33;;;;;;;1.02;1.02;;;;;;;1.80;51.02;62185.06;5022568;28;20230;-77
2023/03/12 04:25:00;;;;;;;0.90;0.90;;;;;;;1.74;51.24;62183.94;5026288;28;20234;-77
2023/03/12 04:27:28;;;;;;;1.02;1.02;;;;;;;1.73;51.42;62180.91;5022919;28;20427;-78
2023/03/12 04:29:56;;;;;;;1.20;0.80;;;;;;;1.70;50.86;62174.81;5026572;28;20302;-78
2023/03/12 04:32:23;;;;;;;0.90;0.90;;;;;;;1.76;50.83;62180.97;5022904;28;20296;-77
2023/03/12 04:34:50;;;;;;;0.73;0.73;;;;;;;1.73;51.33;62175.88;5025535;28;20194;-78
2023/03/12 04:37:16;;;;;;;1.08;1.08;;;;;;;1.67;51.02;62169.22;5024797;28;20219;-77
2023/03/12 04:39:45;;;;;;;0.98;0.98;;;;;;;1.74;51.16;62181.41;5023294;28;20209;-76
2023/03/12 04:42:12;;;;;;;0.60;0.55;;;;;;;1.76;51.11;62178.47;5025205;28;20236;-77
2023/03/12 04:44:41;;;;;;;0.85;0.85;;;;;;;1.65;50.12;62167.69;5024800;28;20518;-77
2023/03/12 04:47:09;;;;;;;0.70;0.70;;;;;;;1.65;49.77;62172.19;5023811;28;20219;-77
2023/03/12 04:49:38;;;;;;;0.85;0.85;;;;;;;1.73;49.49;62175.38;5023253;28;20195;-80
2023/03/12 04:52:06;;;;;;;2.22;0.75;;;;;;;1.77;49.67;62182.00;5023570;28;20226;-78
2023/03/12 04:54:33;;;;;;;1.08;1.00;;;;;;;1.77;49.55;62182.00;5027400;28;20237;-78
2023/03/12 04:57:00;;;;;;;0.85;0.85;;;;;;;1.73;48.59;62180.38;5025184;28;20218;-79
2023/03/12 04:59:27;;;;;;;2.25;0.90;;;;;;;1.77;49.30;62185.00;5023241;28;20396;-79
2023/03/12 05:01:55;;;;;;;0.82;0.82;;;;;;;1.75;49.05;62182.44;5023814;28;20261;-78
2023/03/12 05:04:23;;;;;;;0.88;0.80;;;;;;;1.76;48.90;62178.97;5023036;28;20201;-79
2023/03/12 05:06:49;;;;;;;1.15;1.10;;;;;;;1.83;48.87;62186.16;5024426;28;20233;-79
2023/03/12 05:09:16;;;;;;;1.23;1.00;;;;;;;1.75;48.33;62177.94;5023671;28;20202;-79
2023/03/12 05:11:43;;;;;;;0.93;0.90;;;;;;;1.80;47.64;62185.56;5024136;28;20327;-79
2023/03/12 05:14:11;;;;;;;2.05;1.30;;;;;;;1.92;47.82;62199.88;5024244;28;20234;-78
2023/03/12 05:16:39;;;;;;;2.53;1.23;;;;;;;1.89;48.73;62194.31;5020664;28;20226;-80
2023/03/12 05:19:08;;;;;;;1.45;1.00;;;;;;;1.85;49.15;62187.69;5022179;28;20202;-78
2023/03/12 05:21:35;;;;;;;1.05;1.00;;;;;;;1.96;49.18;62198.97;5027986;28;20226;-78
2023/03/12 05:24:02;;;;;;;0.60;0.60;;;;;;;2.00;48.76;62205.59;5028680;28;20195;-78
2023/03/12 05:26:31;;;;;;;2.55;0.80;;;;;;;2.05;48.56;62208.22;5026076;28;20219;-77
2023/03/12 05:28:58;;;;;;;1.00;1.00;;;;;;;2.04;48.56;62212.72;5026235;28;20197;-79
2023/03/12 05:31:26;;;;;;;1.00;1.00;;;;;;;2.05;48.54;62216.25;5027486;28;20238;-79
2023/03/12 05:33:53;;;;;;;1.75;1.65;;;;;;;2.14;48.14;62219.97;5026899;28;20285;-79
2023/03/12 05:36:21;;;;;;;0.80;0.80;;;;;;;2.08;48.63;62211.81;5024366;28;20260;-79
2023/03/12 05:38:48;;;;;;;1.30;1.20;;;;;;;2.12;47.47;62218.44;5028023;28;20195;-78
2023/03/12 05:41:20;;;;;;;1.70;1.60;;;;;;;2.24;47.21;62233.25;5028033;28;20219;-79
2023/03/12 05:43:47;;;;;;;1.83;1.50;;;;;;;2.19;46.39;62223.09;5022052;28;20214;-79
2023/03/12 05:46:14;;;;;;;1.48;1.08;;;;;;;2.26;46.26;62237.81;5030057;28;20230;-78
2023/03/12 05:48:41;;;;;;;0.60;0.60;;;;;;;2.23;45.94;62231.72;5028619;28;20209;-77
2023/03/12 05:51:09;;;;;;;1.08;0.63;;;;;;;2.30;44.72;62236.91;5031122;28;20198;-77
2023/03/12 05:53:39;;;;;;;1.15;1.13;;;;;;;2.42;45.25;62250.75;5025276;28;20614;-77
2023/03/12 05:56:08;;;;;;;1.02;1.02;;;;;;;2.49;44.97;62257.91;5028655;28;20206;-79
2023/03/12 05:58:36;;;;;;;0.68;0.68;;;;;;;2.52;44.67;62263.53;5027694;28;20191;-76
2023/03/12 06:01:05;;;;;;;2.03;0.70;;;;;;;2.52;45.26;62261.50;5022886;28;20241;-77
2023/03/12 06:03:32;;;;;;;0.75;0.75;;;;;;;2.57;45.67;62264.16;5026734;28;20262;-78
2023/03/12 06:05:59;;;;;;;1.23;1.02;;;;;;;2.67;44.11;62269.41;5028130;28;20203;-78
2023/03/12 06:08:25;;;;;;;0.93;0.93;;;;;;;2.63;44.01;62272.81;5029238;28;20305;-78
2023/03/12 06:10:54;;;;;;;1.67;1.20;;;;;;;2.71;43.69;62278.53;5025244;28;20435;-77
2023/03/12 06:13:21;;;;;;;0.88;0.88;;;;;;;2.72;44.09;62282.06;5027451;28;20227;-77
2023/03/12 06:15:48;;;;;;;1.33;1.23;;;;;;;2.66;44.66;62278.41;5027679;28;20207;-78
2023/03/12 06:18:16;;;;;;;0.70;0.70;;;;;;;2.75;45.67;62282.63;5016518;28;20220;-78
2023/03/12 06:20:43;;;;;;;1.17;1.17;;;;;;;2.75;45.52;62282.13;5021919;28;20207;-78
2023/03/12 06:23:10;;;;;;;0.90;0.90;;;;;;;2.74;47.89;62283.59;5026436;28;20601;-79
2023/03/12 06:25:37;;;;;;;1.35;0.90;;;;;;;2.34;48.32;62243.53;5028994;28;20210;-79
2023/03/12 06:28:07;;;;;;;1.23;1.13;;;;;;;2.35;49.02;62239.53;5028399;28;20218;-77
2023/03/12 06:30:34;;;;;;;1.02;1.02;;;;;;;2.23;50.63;62229.22;5012443;28;20208;-80
2023/03/12 06:33:02;;;;;;;1.08;0.90;;;;;;;2.26;49.76;62232.31;5008075;28;20242;-80
2023/03/12 06:35:29;;;;;;;1.92;1.23;;;;;;;2.21;51.38;62227.69;5023273;28;20443;-78
2023/03/12 06:37:56;;;;;;;0.70;0.70;;;;;;;2.34;50.06;62240.53;5027392;28;20219;-78
2023/03/12 06:40:23;;;;;;;0.88;0.88;;;;;;;2.44;50.19;62250.25;5028066;28;20250;-76
2023/03/12 06:42:50;;;;;;;0.90;0.90;;;;;;;2.52;50.67;62263.53;5028873;28;20218;-78
2023/03/12 06:45:19;;;;;;;1.30;1.27;;;;;;;2.53;50.21;62260.03;5027436;28;20207;-80
2023/03/12 06:47:46;;;;;;;1.25;1.13;;;;;;;2.67;50.38;62273.91;5019575;28;20532;-79
2023/03/12 06:50:13;;;;;;;1.00;1.00;;;;;;;2.69;48.66;62280.97;5027659;28;20257;-77
2023/03/12 06:52:40;;;;;;;1.17;1.08;;;;;;;2.57;49.82;62258.59;5028737;28;20245;-77
2023/03/12 06:55:08;;;;;;;1.52;1.42;;;;;;;2.70;49.60;62277.50;5027917;28;20198;-81
2023/03/12 06:57:35;;;;;;;1.50;1.40;;;;;;;2.78;48.70;62287.72;5015804;28;20231;-78
2023/03/12 07:00:02;;;;;;;0.98;0.98;;;;;;;2.78;48.79;62283.19;5022320;28;20199;-78
2023/03/12 07:02:31;;;;;;;0.77;0.77;;;;;;;2.79;49.95;62286.75;5026238;28;20238;-78
2023/03/12 07:04:58;;;;;;;0.63;0.63;;;;;;;2.73;50.33;62282.56;5023681;28;20213;-75
2023/03/12 07:07:24;;;;;;;1.15;1.05;;;;;;;2.83;51.34;62288.34;5019214;28;20230;-78
2023/03/12 07:09:51;;;;;;;2.33;1.35;;;;;;;2.96;50.21;62303.69;5024934;28;20203;-78
2023/03/12 07:12:18;;;;;;;0.85;0.85;;;;;;;2.83;50.32;62292.88;5027108;28;20223;-78
2023/03/12 07:14:46;;;;;;;1.20;1.10;;;;;;;2.62;51.23;62266.25;5024932;28;20226;-78
2023/03/12 07:17:13;;;;;;;1.70;1.60;;;;;;;2.63;51.64;62270.31;5025610;28;20310;-79
2023/03/12 07:19:41;;;;;;;1.52;1.42;;;;;;;2.76;53.93;62283.66;5026006;28;20214;-78
2023/03/12 07:22:09;;;;;;;1.70;1.60;;;;;;;2.44;60.46;62255.81;5023438;28;20285;-81
2023/03/12 07:24:36;;;;;;;2.00;1.90;;;;;;;2.02;63.83;62210.19;5023986;28;20249;-77
2023/03/12 07:27:03;;;;;;;4.93;1.25;;;;;;;1.83;67.70;62191.16;5025135;28;20230;-79
2023/03/12 07:29:30;;;;;;;1.48;1.38;;;;;;;1.79;66.46;62181.53;5028030;28;20242;-79
2023/03/12 07:31:57;;;;;;;1.77;1.35;;;;;;;1.83;64.45;62183.13;5024937;28;20281;-79
2023/03/12 07:34:24;;;;;;;1.13;1.02;;;;;;;2.18;62.54;62222.09;5026503;28;20235;-78
2023/03/12 07:36:53;;;;;;;0.75;0.75;;;;;;;2.28;62.71;62231.84;5023581;28;20280;-79
2023/03/12 07:39:20;;;;;;;1.55;1.45;;;;;;;2.25;62.47;62238.81;5023602;28;20199;-79
2023/03/12 07:41:48;;;;;;;1.80;1.52;;;;;;;2.02;63.92;62210.19;5026048;28;20215;-81
2023/03/12 07:44:15;;;;;;;1.30;1.20;;;;;;;2.23;65.58;62226.69;5022989;28;20530;-80
2023/03/12 07:46:41;;;;;;;2.38;1.92;;;;;;;2.42;66.06;62248.72;5026907;28;20289;-79
2023/03/12 07:49:08;;;;;;;1.58;1.48;;;;;;;2.48;62.03;62254.91;5024296;28;20218;-78
2023/03/12 07:51:36;;;;;;;2.00;1.70;;;;;;;2.27;63.24;62233.84;5023357;28;20226;-78
2023/03/12 07:54:04;;;;;;;2.08;1.98;;;;;;;2.57;60.45;62263.63;5023883;28;20253;-79
2023/03/12 07:56:31;;;;;;;2.40;1.17;;;;;;;2.90;52.49;62298.03;5026659;28;20247;-79
2023/03/12 07:58:58;;;;;;;1.80;1.70;;;;;;;2.99;52.05;62304.25;5020862;28;20223;-80
2023/03/12 08:01:30;;;;;;;1.48;1.42;;;;;;;3.16;51.65;62322.25;5015746;28;20223;-81
2023/03/12 08:03:57;;;;;;;2.00;1.90;;;;;;;2.90;56.17;62295.53;5008469;28;20191;-78
2023/03/12 08:06:24;;;;;;;2.47;1.80;;;;;;;3.08;55.68;62316.03;5011547;28;20270;-79
2023/03/12 08:08:51;;;;;;;2.30;1.65;;;;;;;3.08;55.54;62319.06;5025416;28;20218;-78
2023/03/12 08:11:19;;;;;;;0.70;0.70;;;;;;;2.82;53.91;62289.31;5028581;28;20222;-78
2023/03/12 08:13:46;;;;;;;2.10;1.25;;;;;;;3.01;54.12;62306.31;5014442;28;20239;-79
2023/03/12 08:16:14;;;;;;;1.80;1.70;;;;;;;2.91;53.96;62301.59;5013043;28;20286;-79
2023/03/12 08:18:42;;;;;;;3.78;1.58;;;;;;;2.63;54.98;62272.31;5015735;28;20203;-78
2023/03/12 08:21:10;;;;;;;1.77;1.67;;;;;;;2.64;55.67;62268.81;5022098;28;20242;-80
2023/03/12 08:23:37;;;;;;;1.10;1.10;;;;;;;2.57;54.46;62261.63;5021023;28;20421;-78
2023/03/12 08:26:04;;;;;;;1.52;1.42;;;;;;;2.88;54.92;62298.50;5025550;28;20226;-78
2023/03/12 08:28:32;;;;;;;1.15;1.15;;;;;;;2.73;53.44;62272.50;5024588;28;20228;-80
2023/03/12 08:31:01;;;;;;;1.98;1.77;;;;;;;2.80;52.83;62289.75;5015587;28;20273;-79
2023/03/12 08:33:28;;;;;;;1.67;1.58;;;;;;;2.84;52.84;62294.41;5025635;28;20199;-80
2023/03/12 08:35:56;;;;;;;1.80;1.73;;;;;;;2.96;53.90;62301.19;5024349;28;20203;-81
2023/03/12 08:38:23;;;;;;;1.95;1.85;;;;;;;2.99;52.35;62306.78;5027522;28;20347;-79
2023/03/12 08:40:55;;;;;;;1.58;1.48;;;;;;;3.07;51.70;62312.50;5026374;28;20222;-78
2023/03/12 08:43:22;;;;;;;2.05;1.95;;;;;;;3.22;51.85;62335.47;5026119;28;20237;-80
2023/03/12 08:45:55;;;;;;;3.13;1.63;;;;;;;3.12;52.65;62318.13;5024649;28;20222;-80
2023/03/12 08:48:21;;;;;;;2.85;1.60;;;;;;;3.31;54.07;62339.69;5027170;28;20198;-78
2023/03/12 08:50:49;;;;;;;1.65;1.55;;;;;;;3.00;54.70;62310.84;5015898;28;20307;-79
2023/03/12 08:53:16;;;;;;;1.98;1.75;;;;;;;3.25;53.99;62331.50;5026941;28;20222;-79
2023/03/12 08:55:44;;;;;;;1.88;1.73;;;;;;;3.04;53.48;62314.94;5030520;28;20202;-79
2023/03/12 08:58:11;;;;;;;2.40;2.15;;;;;;;3.44;53.12;62353.03;5033505;28;20218;-78
2023/03/12 09:00:38;;;;;;;1.75;1.45;;;;;;;3.28;53.45;62331.56;5030528;28;20237;-79
2023/03/12 09:03:07;;;;;;;1.42;1.33;;;;;;;3.56;52.35;62362.84;5029767;28;20218;-80
2023/03/12 09:05:34;;;;;;;1.55;1.45;;;;;;;3.58;51.72;62366.91;5029658;28;20199;-80
2023/03/12 09:08:01;;;;;;;1.90;1.80;;;;;;;3.67;52.12;62371.16;5031273;28;20264;-81
2023/03/12 09:10:28;;;;;;;1.50;1.40;;;;;;;3.54;50.15;62363.84;5030529;28;20239;-79
2023/03/12 09:12:55;;;;;;;1.52;1.50;;;;;;;3.68;52.38;62374.69;5031043;28;20261;-80
2023/03/12 09:15:22;;;;;;;1.63;1.40;;;;;;;3.34;51.39;62345.78;5030083;28;20337;-79
2023/03/12 09:17:49;;;;;;;1.63;1.52;;;;;;;3.21;52.38;62332.41;5030797;28;20253;-79
2023/03/12 09:20:18;;;;;;;2.58;1.30;;;;;;;3.05;51.78;62310.44;5031102;28;20265;-80
2023/03/12 09:22:45;;;;;;;1.70;1.60;;;;;;;3.40;51.01;62353.94;5024515;28;20285;-79
2023/03/12 09:25:13;;;;;;;1.80;1.70;;;;;;;3.54;51.87;62363.31;5025655;28;20460;-80
2023/03/12 09:27:41;;;;;;;1.60;1.50;;;;;;;3.74;51.88;62383.38;5017894;28;20222;-78
2023/03/12 09:30:13;;;;;;;1.77;1.67;;;;;;;3.89;51.94;62396.81;5029607;28;20265;-80
2023/03/12 09:32:40;;;;;;;1.13;1.10;;;;;;;3.50;50.46;62361.72;5031143;28;20265;-80
2023/03/12 09:35:08;;;;;;;2.03;1.38;;;;;;;3.18;51.74;62326.31;5030156;28;20249;-83
2023/03/12 09:37:36;;;;;;;1.75;1.58;;;;;;;3.29;51.46;62332.59;5028581;28;20229;-79
2023/03/12 09:40:06;;;;;;;4.28;1.42;;;;;;;3.50;53.36;62361.72;5026165;28;20198;-80
2023/03/12 09:42:40;;;;;;;1.55;1.45;;;;;;;3.79;51.98;62389.03;5030001;28;20384;-81
2023/03/12 09:45:14;;;;;;;0.98;0.98;;;;;;;3.66;51.59;62372.63;5027957;28;20231;-79
2023/03/12 09:47:47;;;;;;;1.70;1.60;;;;;;;3.49;52.43;62358.69;5010550;28;20285;-78
2023/03/12 09:50:22;;;;;;;1.70;1.60;;;;;;;3.57;53.23;62365.91;5026803;28;20214;-80
2023/03/12 09:52:57;;;;;;;0.98;0.98;;;;;;;3.62;51.51;62369.03;5021052;28;20392;-76
2023/03/12 09:55:26;;;;;;;1.23;1.23;;;;;;;3.71;52.25;62380.81;5016499;28;20235;-80
2023/03/12 09:57:54;;;;;;;3.38;2.13;;;;;;;4.18;51.37;62429.16;5019048;28;20234;-79
2023/03/12 10:00:24;;;;;;;1.45;1.10;;;;;;;4.06;50.01;62416.81;5012798;28;20202;-79
2023/03/12 10:03:23;;;;;;;1.60;1.50;;;;;;;4.07;50.98;62417.31;5027518;28;20210;-79
2023/03/12 10:06:06;;;;;;;1.85;1.75;;;;;;;4.23;51.89;62434.28;5024364;28;20203;-79
2023/03/12 10:08:47;;;;;;;1.60;1.50;;;;;;;4.28;49.19;62441.47;5027206;28;20199;-79
2023/03/12 10:11:27;;;;;;;1.35;1.33;;;;;;;4.46;49.23;62457.44;5031157;28;20254;-80
2023/03/12 10:14:09;;;;;;;3.50;1.50;;;;;;;4.52;49.36;62466.16;5034479;28;20194;-81
2023/03/12 10:16:49;;;;;;;2.33;1.30;;;;;;;4.14;50.19;62425.03;5026208;28;20215;-80
2023/03/12 10:19:37;;;;;;;3.55;1.95;;;;;;;4.54;50.72;62463.16;5024624;28;20198;-81
2023/03/12 10:22:13;;;;;;;8.02;1.80;;;;;;;4.72;49.04;62484.22;5025436;28;20448;-81
2023/03/12 10:24:54;;;;;;;2.35;1.40;;;;;;;4.31;49.29;62442.03;5017956;28;20266;-81
2023/03/12 10:27:24;;;;;;;1.23;1.23;;;;;;;4.12;49.63;62428.03;5027409;28;20228;-78
2023/03/12 10:29:53;;;;;;;1.33;1.15;;;;;;;4.33;50.81;62446.59;5022277;28;20278;-81
2023/03/12 10:32:25;;;;;;;1.80;1.45;;;;;;;4.35;50.02;62448.66;5017771;28;20241;-79
2023/03/12 10:34:56;;;;;;;1.45;1.35;;;;;;;4.17;50.31;62430.13;5032390;28;20242;-79
2023/03/12 10:37:26;;;;;;;1.38;1.38;;;;;;;4.28;51.24;62441.47;5020942;28;20494;-78
2023/03/12 10:39:55;;;;;;;1.58;1.50;;;;;;;4.59;49.94;62473.38;5025585;28;20202;-79
2023/03/12 10:42:24;;;;;;;1.52;1.42;;;;;;;4.33;49.52;62447.09;5027538;28;20241;-80
2023/03/12 10:44:54;;;;;;;1.55;1.48;;;;;;;4.64;49.05;62481.03;5028335;28;20206;-79
2023/03/12 10:47:33;;;;;;;1.70;1.60;;;;;;;4.82;47.86;62491.47;5028770;28;20558;-80
2023/03/12 10:50:14;;;;;;;1.00;1.00;;;;;;;4.72;49.09;62486.75;5020307;28;20203;-79
2023/03/12 10:52:41;;;;;;;1.30;1.20;;;;;;;4.51;49.29;62460.06;5026413;28;20241;-81
2023/03/12 10:55:19;;;;;;;1.48;1.38;;;;;;;4.93;48.32;62502.78;5023877;28;20246;-78
2023/03/12 10:57:47;;;;;;;1.45;1.40;;;;;;;5.11;46.98;62526.88;5023355;28;20235;-81
2023/03/12 11:00:20;;;;;;;1.65;1.60;;;;;;;5.14;47.37;62527.47;5021560;28;20198;-78
2023/03/12 11:02:55;;;;;;;1.60;1.50;;;;;;;4.94;47.66;62506.88;5019126;28;20218;-79
2023/03/12 11:05:24;;;;;;;3.60;1.88;;;;;;;4.72;48.54;62486.75;5016670;28;20203;-81
2023/03/12 11:07:52;;;;;;;1.20;1.10;;;;;;;5.19;48.52;62532.09;5024298;28;20294;-81
2023/03/12 11:10:25;;;;;;;1.67;1.58;;;;;;;5.25;46.56;62538.25;5020180;28;21377;-81
2023/03/12 11:12:58;;;;;;;1.60;1.52;;;;;;;5.41;47.10;62552.75;5023964;28;20207;-79
2023/03/12 11:15:29;;;;;;;1.60;1.08;;;;;;;5.07;46.71;62525.31;5027832;28;20291;-80
2023/03/12 11:18:19;;;;;;;2.00;1.90;;;;;;;4.72;48.49;62486.75;5028978;28;20218;-81
2023/03/12 11:20:47;;;;;;;1.95;1.85;;;;;;;4.96;48.46;62510.94;5024513;28;20209;-81
2023/03/12 11:23:16;;;;;;;1.77;1.67;;;;;;;5.23;47.36;62536.72;5028837;28;20535;-80
2023/03/12 11:25:52;;;;;;;1.88;1.77;;;;;;;5.59;48.14;62573.81;5031189;28;20203;-82
2023/03/12 11:28:24;;;;;;;3.28;1.73;;;;;;;5.75;47.21;62589.78;5025498;28;20353;-81
2023/03/12 11:30:54;;;;;;;1.80;1.70;;;;;;;5.66;46.56;62585.56;5028110;28;20464;-79
2023/03/12 11:33:21;;;;;;;2.17;2.03;;;;;;;5.81;45.41;62596.50;5028072;28;20222;-79
2023/03/12 11:36:02;;;;;;;1.67;1.58;;;;;;;5.23;45.74;62539.25;5026949;28;20250;-82
2023/03/12 11:38:34;;;;;;;1.98;1.75;;;;;;;5.44;46.09;62560.88;5024204;28;20510;-78
2023/03/12 11:41:15;;;;;;;1.30;1.30;;;;;;;5.76;45.97;62590.81;5012427;28;20206;-83
2023/03/12 11:44:10;;;;;;;1.73;1.65;;;;;;;6.01;46.21;62618.59;5019663;28;20199;-82
2023/03/12 11:46:52;;;;;;;1.70;1.60;;;;;;;5.61;46.21;62578.41;5001486;28;20242;-79
2023/03/12 11:49:34;;;;;;;3.45;1.67;;;;;;;5.38;45.87;62552.19;5012184;28;20223;-83